sensor_id;sensor_type;location;lat;lon;timestamp;temperature;humidity
20750;DHT22;10535;50.664;4.564;2023-07-20T00:00:29;16.20;99.90
20750;DHT22;10535;50.664;4.564;2023-07-20T00:03:13;16.30;99.90
20750;DHT22;10535;50.664;4.564;2023-07-20T00:05:45;16.30;99.90
20750;DHT22;10535;50.664;4.564;2023-07-20T00:08:10;16.20;99.90
20750;DHT22;10535;50.664;4.564;2023-07-20T00:10:36;16.30;99.90
20750;DHT22;10535;50.664;4.564;2023-07-20T00:13:01;16.40;99.90
20750;DHT22;10535;50.664;4.564;2023-07-20T00:15:27;16.50;99.90
20750;DHT22;10535;50.664;4.564;2023-07-20T00:17:53;16.50;99.90
20750;DHT22;10535;50.664;4.564;2023-07-20T00:20:18;16.50;99.90
20750;DHT22;10535;50.664;4.564;2023-07-20T00:22:44;16.50;99.90
20750;DHT22;10535;50.664;4.564;2023-07-20T00:25:09;16.60;99.90
20750;DHT22;10535;50.664;4.564;2023-07-20T00:27:37;16.50;99.90
20750;DHT22;10535;50.664;4.564;2023-07-20T00:30:03;16.50;99.90
20750;DHT22;10535;50.664;4.564;2023-07-20T00:32:29;16.60;99.90
20750;DHT22;10535;50.664;4.564;2023-07-20T00:34:55;16.60;99.90
20750;DHT22;10535;50.664;4.564;2023-07-20T00:37:20;16.50;99.90
20750;DHT22;10535;50.664;4.564;2023-07-20T00:39:46;16.60;99.90
20750;DHT22;10535;50.664;4.564;2023-07-20T00:42:12;16.60;99.90
20750;DHT22;10535;50.664;4.564;2023-07-20T00:44:37;16.60;99.90
20750;DHT22;10535;50.664;4.564;2023-07-20T00:47:04;16.70;99.90
20750;DHT22;10535;50.664;4.564;2023-07-20T00:49:29;16.60;99.90
20750;DHT22;10535;50.664;4.564;2023-07-20T00:51:55;16.60;99.90
20750;DHT22;10535;50.664;4.564;2023-07-20T00:54:21;16.70;99.90
20750;DHT22;10535;50.664;4.564;2023-07-20T00:56:47;16.70;99.90
20750;DHT22;10535;50.664;4.564;2023-07-20T00:59:13;16.60;99.90
20750;DHT22;10535;50.664;4.564;2023-07-20T01:01:39;16.70;99.90
20750;DHT22;10535;50.664;4.564;2023-07-20T01:04:05;16.70;99.90
20750;DHT22;10535;50.664;4.564;2023-07-20T01:06:41;16.70;99.90
20750;DHT22;10535;50.664;4.564;2023-07-20T01:09:22;16.60;99.90
20750;DHT22;10535;50.664;4.564;2023-07-20T01:12:13;16.70;99.90
20750;DHT22;10535;50.664;4.564;2023-07-20T01:14:42;16.70;99.90
20750;DHT22;10535;50.664;4.564;2023-07-20T01:17:07;16.80;99.90
20750;DHT22;10535;50.664;4.564;2023-07-20T01:19:33;16.80;99.90
20750;DHT22;10535;50.664;4.564;2023-07-20T01:25:30;16.70;99.90
20750;DHT22;10535;50.664;4.564;2023-07-20T01:28:29;16.80;99.90
20750;DHT22;10535;50.664;4.564;2023-07-20T01:33:42;16.80;99.90
20750;DHT22;10535;50.664;4.564;2023-07-20T01:36:09;16.80;99.90
20750;DHT22;10535;50.664;4.564;2023-07-20T01:39:46;16.70;99.90
20750;DHT22;10535;50.664;4.564;2023-07-20T01:43:13;16.80;99.90
20750;DHT22;10535;50.664;4.564;2023-07-20T01:46:41;16.90;99.90
20750;DHT22;10535;50.664;4.564;2023-07-20T01:49:56;16.90;99.90
20750;DHT22;10535;50.664;4.564;2023-07-20T01:53:14;17.00;99.90
20750;DHT22;10535;50.664;4.564;2023-07-20T01:56:30;17.10;99.90
20750;DHT22;10535;50.664;4.564;2023-07-20T02:00:01;16.90;99.90
20750;DHT22;10535;50.664;4.564;2023-07-20T02:03:02;16.80;99.90
20750;DHT22;10535;50.664;4.564;2023-07-20T02:05:58;16.80;99.90
20750;DHT22;10535;50.664;4.564;2023-07-20T02:13:02;16.80;99.90
20750;DHT22;10535;50.664;4.564;2023-07-20T02:15:37;16.90;99.90
20750;DHT22;10535;50.664;4.564;2023-07-20T02:18:45;16.80;99.90
20750;DHT22;10535;50.664;4.564;2023-07-20T02:22:13;16.80;99.90
20750;DHT22;10535;50.664;4.564;2023-07-20T02:25:49;16.90;99.90
20750;DHT22;10535;50.664;4.564;2023-07-20T02:28:38;16.80;99.90
20750;DHT22;10535;50.664;4.564;2023-07-20T02:31:43;16.80;99.90
20750;DHT22;10535;50.664;4.564;2023-07-20T02:34:36;16.80;99.90
20750;DHT22;10535;50.664;4.564;2023-07-20T02:37:51;16.80;99.90
20750;DHT22;10535;50.664;4.564;2023-07-20T02:40:48;16.80;99.90
20750;DHT22;10535;50.664;4.564;2023-07-20T02:43:30;16.70;99.90
20750;DHT22;10535;50.664;4.564;2023-07-20T02:47:01;16.60;99.90
20750;DHT22;10535;50.664;4.564;2023-07-20T02:49:36;16.50;99.90
20750;DHT22;10535;50.664;4.564;2023-07-20T02:52:47;16.50;99.90
20750;DHT22;10535;50.664;4.564;2023-07-20T02:55:22;16.40;99.90
20750;DHT22;10535;50.664;4.564;2023-07-20T02:58:53;16.40;99.90
20750;DHT22;10535;50.664;4.564;2023-07-20T03:01:59;16.30;99.90
20750;DHT22;10535;50.664;4.564;2023-07-20T03:05:02;16.30;99.90
20750;DHT22;10535;50.664;4.564;2023-07-20T03:08:31;16.30;99.90
20750;DHT22;10535;50.664;4.564;2023-07-20T03:11:55;16.20;99.90
20750;DHT22;10535;50.664;4.564;2023-07-20T03:14:43;16.10;99.90
20750;DHT22;10535;50.664;4.564;2023-07-20T03:19:52;16.20;99.90
20750;DHT22;10535;50.664;4.564;2023-07-20T03:29:14;16.40;99.90
20750;DHT22;10535;50.664;4.564;2023-07-20T03:31:53;16.40;99.90
20750;DHT22;10535;50.664;4.564;2023-07-20T03:34:20;16.40;99.90
20750;DHT22;10535;50.664;4.564;2023-07-20T03:36:46;16.40;99.90
20750;DHT22;10535;50.664;4.564;2023-07-20T03:39:33;16.40;99.90
20750;DHT22;10535;50.664;4.564;2023-07-20T03:42:01;16.50;99.90
20750;DHT22;10535;50.664;4.564;2023-07-20T03:44:57;16.50;99.90
20750;DHT22;10535;50.664;4.564;2023-07-20T03:47:22;16.70;99.90
20750;DHT22;10535;50.664;4.564;2023-07-20T03:50:36;16.70;99.90
20750;DHT22;10535;50.664;4.564;2023-07-20T03:53:08;16.50;99.90
20750;DHT22;10535;50.664;4.564;2023-07-20T03:56:09;16.50;99.90
20750;DHT22;10535;50.664;4.564;2023-07-20T03:58:55;16.70;99.90
20750;DHT22;10535;50.664;4.564;2023-07-20T04:01:55;16.70;99.90
20750;DHT22;10535;50.664;4.564;2023-07-20T04:04:24;16.70;99.90
20750;DHT22;10535;50.664;4.564;2023-07-20T04:07:09;16.70;99.90
20750;DHT22;10535;50.664;4.564;2023-07-20T04:09:39;16.80;99.90
20750;DHT22;10535;50.664;4.564;2023-07-20T04:12:47;16.80;99.90
20750;DHT22;10535;50.664;4.564;2023-07-20T04:15:58;16.70;99.90
20750;DHT22;10535;50.664;4.564;2023-07-20T04:18:38;16.80;99.90
20750;DHT22;10535;50.664;4.564;2023-07-20T04:24:35;16.90;99.90
20750;DHT22;10535;50.664;4.564;2023-07-20T04:27:34;16.90;99.90
20750;DHT22;10535;50.664;4.564;2023-07-20T04:30:35;16.80;99.90
20750;DHT22;10535;50.664;4.564;2023-07-20T04:33:17;16.70;99.90
20750;DHT22;10535;50.664;4.564;2023-07-20T04:35:59;16.70;99.90
20750;DHT22;10535;50.664;4.564;2023-07-20T04:39:09;16.60;99.90
20750;DHT22;10535;50.664;4.564;2023-07-20T04:41:37;16.60;99.90
20750;DHT22;10535;50.664;4.564;2023-07-20T04:44:23;16.50;99.90
20750;DHT22;10535;50.664;4.564;2023-07-20T04:46:48;16.40;99.90
20750;DHT22;10535;50.664;4.564;2023-07-20T04:49:23;16.60;99.90
20750;DHT22;10535;50.664;4.564;2023-07-20T04:54:46;16.60;99.90
20750;DHT22;10535;50.664;4.564;2023-07-20T04:57:23;16.60;99.90
20750;DHT22;10535;50.664;4.564;2023-07-20T04:59:52;16.70;99.90
20750;DHT22;10535;50.664;4.564;2023-07-20T05:02:18;16.60;99.90
20750;DHT22;10535;50.664;4.564;2023-07-20T05:04:46;16.60;99.90
20750;DHT22;10535;50.664;4.564;2023-07-20T05:07:12;16.70;99.90
20750;DHT22;10535;50.664;4.564;2023-07-20T05:09:40;16.80;99.90
20750;DHT22;10535;50.664;4.564;2023-07-20T05:12:09;16.80;99.90
20750;DHT22;10535;50.664;4.564;2023-07-20T05:14:36;16.90;99.90
20750;DHT22;10535;50.664;4.564;2023-07-20T05:17:02;17.00;99.90
20750;DHT22;10535;50.664;4.564;2023-07-20T05:19:33;17.10;99.90
20750;DHT22;10535;50.664;4.564;2023-07-20T05:21:59;17.20;99.90
20750;DHT22;10535;50.664;4.564;2023-07-20T05:24:25;17.30;99.90
20750;DHT22;10535;50.664;4.564;2023-07-20T05:26:50;17.40;99.90
20750;DHT22;10535;50.664;4.564;2023-07-20T05:29:16;17.30;99.90
20750;DHT22;10535;50.664;4.564;2023-07-20T05:31:42;17.40;99.90
20750;DHT22;10535;50.664;4.564;2023-07-20T05:34:10;17.50;99.90
20750;DHT22;10535;50.664;4.564;2023-07-20T05:36:35;17.80;99.90
20750;DHT22;10535;50.664;4.564;2023-07-20T05:39:02;17.80;99.90
20750;DHT22;10535;50.664;4.564;2023-07-20T05:41:29;17.90;99.90
20750;DHT22;10535;50.664;4.564;2023-07-20T05:43:55;18.00;99.90
20750;DHT22;10535;50.664;4.564;2023-07-20T05:46:21;18.20;99.90
20750;DHT22;10535;50.664;4.564;2023-07-20T05:48:49;18.50;99.90
20750;DHT22;10535;50.664;4.564;2023-07-20T05:51:17;18.70;99.90
20750;DHT22;10535;50.664;4.564;2023-07-20T05:53:45;18.90;99.90
20750;DHT22;10535;50.664;4.564;2023-07-20T05:56:16;19.20;99.90
20750;DHT22;10535;50.664;4.564;2023-07-20T05:58:56;19.60;99.90
20750;DHT22;10535;50.664;4.564;2023-07-20T06:01:22;19.70;99.90
20750;DHT22;10535;50.664;4.564;2023-07-20T06:03:47;19.70;99.90
20750;DHT22;10535;50.664;4.564;2023-07-20T06:06:13;19.70;99.90
20750;DHT22;10535;50.664;4.564;2023-07-20T06:08:40;19.80;99.90
20750;DHT22;10535;50.664;4.564;2023-07-20T06:11:06;19.70;99.90
20750;DHT22;10535;50.664;4.564;2023-07-20T06:13:31;19.70;99.90
20750;DHT22;10535;50.664;4.564;2023-07-20T06:15:58;19.80;99.90
20750;DHT22;10535;50.664;4.564;2023-07-20T06:18:24;19.60;99.90
20750;DHT22;10535;50.664;4.564;2023-07-20T06:20:51;19.40;99.90
20750;DHT22;10535;50.664;4.564;2023-07-20T06:23:18;19.60;99.90
20750;DHT22;10535;50.664;4.564;2023-07-20T06:25:45;19.90;99.90
20750;DHT22;10535;50.664;4.564;2023-07-20T06:28:11;19.90;99.90
20750;DHT22;10535;50.664;4.564;2023-07-20T06:30:36;20.20;99.90
20750;DHT22;10535;50.664;4.564;2023-07-20T06:33:02;20.00;99.90
20750;DHT22;10535;50.664;4.564;2023-07-20T06:35:28;20.00;99.90
20750;DHT22;10535;50.664;4.564;2023-07-20T06:38:22;20.00;99.90
20750;DHT22;10535;50.664;4.564;2023-07-20T06:40:49;20.20;99.90
20750;DHT22;10535;50.664;4.564;2023-07-20T06:43:26;20.10;99.90
20750;DHT22;10535;50.664;4.564;2023-07-20T06:45:52;20.10;99.90
20750;DHT22;10535;50.664;4.564;2023-07-20T06:48:30;20.00;99.90
20750;DHT22;10535;50.664;4.564;2023-07-20T06:52:07;19.90;99.90
20750;DHT22;10535;50.664;4.564;2023-07-20T06:55:15;19.80;99.90
20750;DHT22;10535;50.664;4.564;2023-07-20T06:58:19;19.60;99.90
20750;DHT22;10535;50.664;4.564;2023-07-20T07:01:38;19.90;99.90
20750;DHT22;10535;50.664;4.564;2023-07-20T07:04:34;19.90;99.90
20750;DHT22;10535;50.664;4.564;2023-07-20T07:07:15;19.50;99.90
20750;DHT22;10535;50.664;4.564;2023-07-20T07:10:40;19.50;99.90
20750;DHT22;10535;50.664;4.564;2023-07-20T07:13:06;19.40;99.90
20750;DHT22;10535;50.664;4.564;2023-07-20T07:16:13;19.60;99.90
20750;DHT22;10535;50.664;4.564;2023-07-20T07:18:59;19.80;99.90
20750;DHT22;10535;50.664;4.564;2023-07-20T07:22:29;20.10;99.90
20750;DHT22;10535;50.664;4.564;2023-07-20T07:25:12;20.30;99.90
20750;DHT22;10535;50.664;4.564;2023-07-20T07:28:00;20.60;99.90
20750;DHT22;10535;50.664;4.564;2023-07-20T07:30:26;20.30;99.90
20750;DHT22;10535;50.664;4.564;2023-07-20T07:32:55;20.50;99.90
20750;DHT22;10535;50.664;4.564;2023-07-20T07:35:38;20.60;99.90
20750;DHT22;10535;50.664;4.564;2023-07-20T07:38:46;20.60;99.90
20750;DHT22;10535;50.664;4.564;2023-07-20T07:41:51;20.60;99.90
20750;DHT22;10535;50.664;4.564;2023-07-20T07:47:26;21.10;99.90
20750;DHT22;10535;50.664;4.564;2023-07-20T07:50:15;21.50;99.90
20750;DHT22;10535;50.664;4.564;2023-07-20T07:52:50;21.20;99.90
20750;DHT22;10535;50.664;4.564;2023-07-20T07:55:43;21.40;99.90
20750;DHT22;10535;50.664;4.564;2023-07-20T07:59:07;21.50;99.90
20750;DHT22;10535;50.664;4.564;2023-07-20T08:02:10;22.00;99.90
20750;DHT22;10535;50.664;4.564;2023-07-20T08:05:15;22.00;99.90
20750;DHT22;10535;50.664;4.564;2023-07-20T08:07:41;22.30;99.90
20750;DHT22;10535;50.664;4.564;2023-07-20T08:10:30;22.30;99.90
20750;DHT22;10535;50.664;4.564;2023-07-20T08:12:56;22.90;99.90
20750;DHT22;10535;50.664;4.564;2023-07-20T08:15:46;22.90;99.90
20750;DHT22;10535;50.664;4.564;2023-07-20T08:18:17;23.30;99.90
20750;DHT22;10535;50.664;4.564;2023-07-20T08:21:06;23.40;99.90
20750;DHT22;10535;50.664;4.564;2023-07-20T08:23:54;23.40;99.90
20750;DHT22;10535;50.664;4.564;2023-07-20T08:26:45;23.50;99.90
20750;DHT22;10535;50.664;4.564;2023-07-20T08:29:53;23.40;99.90
20750;DHT22;10535;50.664;4.564;2023-07-20T08:32:30;23.70;99.90
20750;DHT22;10535;50.664;4.564;2023-07-20T08:35:31;24.10;99.90
20750;DHT22;10535;50.664;4.564;2023-07-20T08:38:41;24.50;99.90
20750;DHT22;10535;50.664;4.564;2023-07-20T08:41:09;24.30;99.90
20750;DHT22;10535;50.664;4.564;2023-07-20T08:43:36;23.30;99.90
20750;DHT22;10535;50.664;4.564;2023-07-20T08:46:04;22.40;99.90
20750;DHT22;10535;50.664;4.564;2023-07-20T08:48:51;22.50;99.90
20750;DHT22;10535;50.664;4.564;2023-07-20T08:51:37;22.70;99.90
20750;DHT22;10535;50.664;4.564;2023-07-20T08:54:51;22.90;99.90
20750;DHT22;10535;50.664;4.564;2023-07-20T08:57:21;23.10;99.90
20750;DHT22;10535;50.664;4.564;2023-07-20T08:59:51;22.90;99.90
20750;DHT22;10535;50.664;4.564;2023-07-20T09:02:25;22.80;99.90
20750;DHT22;10535;50.664;4.564;2023-07-20T09:05:18;22.80;99.90
20750;DHT22;10535;50.664;4.564;2023-07-20T09:08:31;22.70;99.90
20750;DHT22;10535;50.664;4.564;2023-07-20T09:11:23;23.00;99.90
20750;DHT22;10535;50.664;4.564;2023-07-20T09:14:35;23.40;99.90
20750;DHT22;10535;50.664;4.564;2023-07-20T09:17:34;23.50;99.90
20750;DHT22;10535;50.664;4.564;2023-07-20T09:21:03;23.80;99.90
20750;DHT22;10535;50.664;4.564;2023-07-20T09:24:28;24.50;99.90
20750;DHT22;10535;50.664;4.564;2023-07-20T09:27:29;24.50;99.90
20750;DHT22;10535;50.664;4.564;2023-07-20T09:30:21;24.90;99.90
20750;DHT22;10535;50.664;4.564;2023-07-20T09:33:58;25.40;99.90
20750;DHT22;10535;50.664;4.564;2023-07-20T09:40:17;24.90;99.90
20750;DHT22;10535;50.664;4.564;2023-07-20T09:43:22;24.70;99.90
20750;DHT22;10535;50.664;4.564;2023-07-20T09:46:11;24.90;99.90
20750;DHT22;10535;50.664;4.564;2023-07-20T09:49:17;25.00;99.90
20750;DHT22;10535;50.664;4.564;2023-07-20T09:55:08;24.40;99.90
20750;DHT22;10535;50.664;4.564;2023-07-20T09:57:35;24.70;99.90
20750;DHT22;10535;50.664;4.564;2023-07-20T10:00:03;24.60;99.90
20750;DHT22;10535;50.664;4.564;2023-07-20T10:02:46;24.90;99.90
20750;DHT22;10535;50.664;4.564;2023-07-20T10:05:19;25.00;99.90
20750;DHT22;10535;50.664;4.564;2023-07-20T10:07:48;25.00;99.90
20750;DHT22;10535;50.664;4.564;2023-07-20T10:10:15;24.90;99.90
20750;DHT22;10535;50.664;4.564;2023-07-20T10:12:44;24.90;99.90
20750;DHT22;10535;50.664;4.564;2023-07-20T10:15:40;24.90;99.90
20750;DHT22;10535;50.664;4.564;2023-07-20T10:20:51;25.40;99.90
20750;DHT22;10535;50.664;4.564;2023-07-20T10:23:18;25.50;99.90
20750;DHT22;10535;50.664;4.564;2023-07-20T10:25:44;25.70;99.90
20750;DHT22;10535;50.664;4.564;2023-07-20T10:28:11;25.90;99.90
20750;DHT22;10535;50.664;4.564;2023-07-20T10:30:37;26.40;99.90
20750;DHT22;10535;50.664;4.564;2023-07-20T10:33:04;26.60;99.90
20750;DHT22;10535;50.664;4.564;2023-07-20T10:35:31;26.40;99.90
20750;DHT22;10535;50.664;4.564;2023-07-20T10:38:01;26.10;99.90
20750;DHT22;10535;50.664;4.564;2023-07-20T10:40:32;25.60;99.90
20750;DHT22;10535;50.664;4.564;2023-07-20T10:43:06;25.00;99.90
20750;DHT22;10535;50.664;4.564;2023-07-20T10:45:53;24.90;99.90
20750;DHT22;10535;50.664;4.564;2023-07-20T10:48:22;24.60;99.90
20750;DHT22;10535;50.664;4.564;2023-07-20T10:51:14;24.50;99.90
20750;DHT22;10535;50.664;4.564;2023-07-20T10:53:40;24.40;99.90
20750;DHT22;10535;50.664;4.564;2023-07-20T10:58:33;24.50;99.90
20750;DHT22;10535;50.664;4.564;2023-07-20T11:01:04;24.70;99.90
20750;DHT22;10535;50.664;4.564;2023-07-20T11:03:36;24.70;99.90
20750;DHT22;10535;50.664;4.564;2023-07-20T11:09:07;24.30;99.90
20750;DHT22;10535;50.664;4.564;2023-07-20T11:11:37;24.60;99.90
20750;DHT22;10535;50.664;4.564;2023-07-20T11:16:45;24.00;99.90
20750;DHT22;10535;50.664;4.564;2023-07-20T11:21:46;24.10;99.90
20750;DHT22;10535;50.664;4.564;2023-07-20T11:24:12;24.00;99.90
20750;DHT22;10535;50.664;4.564;2023-07-20T11:26:54;24.30;99.90
20750;DHT22;10535;50.664;4.564;2023-07-20T11:29:21;25.00;99.90
20750;DHT22;10535;50.664;4.564;2023-07-20T11:31:53;25.10;99.90
20750;DHT22;10535;50.664;4.564;2023-07-20T11:34:20;24.50;99.90
20750;DHT22;10535;50.664;4.564;2023-07-20T11:36:51;24.70;99.90
20750;DHT22;10535;50.664;4.564;2023-07-20T11:39:19;25.00;99.90
20750;DHT22;10535;50.664;4.564;2023-07-20T11:41:50;25.10;99.90
20750;DHT22;10535;50.664;4.564;2023-07-20T11:44:21;25.40;99.90
20750;DHT22;10535;50.664;4.564;2023-07-20T11:49:40;25.50;99.90
20750;DHT22;10535;50.664;4.564;2023-07-20T11:52:07;26.10;99.90
20750;DHT22;10535;50.664;4.564;2023-07-20T11:54:35;26.40;99.90
20750;DHT22;10535;50.664;4.564;2023-07-20T11:57:01;26.20;99.90
20750;DHT22;10535;50.664;4.564;2023-07-20T11:59:27;26.40;99.90
20750;DHT22;10535;50.664;4.564;2023-07-20T12:01:53;26.40;99.90
20750;DHT22;10535;50.664;4.564;2023-07-20T12:04:18;26.40;99.90
20750;DHT22;10535;50.664;4.564;2023-07-20T12:06:47;26.40;99.90
20750;DHT22;10535;50.664;4.564;2023-07-20T12:09:14;26.60;99.90
20750;DHT22;10535;50.664;4.564;2023-07-20T12:11:43;27.20;99.90
20750;DHT22;10535;50.664;4.564;2023-07-20T12:14:09;27.40;99.90
20750;DHT22;10535;50.664;4.564;2023-07-20T12:16:36;27.20;99.90
20750;DHT22;10535;50.664;4.564;2023-07-20T12:19:08;27.60;99.90
20750;DHT22;10535;50.664;4.564;2023-07-20T12:21:41;27.30;99.90
20750;DHT22;10535;50.664;4.564;2023-07-20T12:24:11;27.00;99.90
20750;DHT22;10535;50.664;4.564;2023-07-20T12:26:37;27.00;99.90
20750;DHT22;10535;50.664;4.564;2023-07-20T12:29:04;26.60;99.90
20750;DHT22;10535;50.664;4.564;2023-07-20T12:31:30;26.70;99.90
20750;DHT22;10535;50.664;4.564;2023-07-20T12:33:58;26.70;99.90
20750;DHT22;10535;50.664;4.564;2023-07-20T12:36:24;26.60;99.90
20750;DHT22;10535;50.664;4.564;2023-07-20T12:38:50;26.50;99.90
20750;DHT22;10535;50.664;4.564;2023-07-20T12:41:16;26.60;99.90
20750;DHT22;10535;50.664;4.564;2023-07-20T12:43:44;26.90;99.90
20750;DHT22;10535;50.664;4.564;2023-07-20T12:46:12;27.20;99.90
20750;DHT22;10535;50.664;4.564;2023-07-20T12:48:39;27.50;99.90
20750;DHT22;10535;50.664;4.564;2023-07-20T12:51:07;27.50;99.90
20750;DHT22;10535;50.664;4.564;2023-07-20T12:53:33;27.10;99.90
20750;DHT22;10535;50.664;4.564;2023-07-20T12:56:00;27.10;99.90
20750;DHT22;10535;50.664;4.564;2023-07-20T12:58:25;26.80;99.90
20750;DHT22;10535;50.664;4.564;2023-07-20T13:00:53;26.60;99.90
20750;DHT22;10535;50.664;4.564;2023-07-20T13:03:18;26.70;99.90
20750;DHT22;10535;50.664;4.564;2023-07-20T13:05:45;26.60;99.90
20750;DHT22;10535;50.664;4.564;2023-07-20T13:08:11;26.60;99.90
20750;DHT22;10535;50.664;4.564;2023-07-20T13:10:37;26.50;99.90
20750;DHT22;10535;50.664;4.564;2023-07-20T13:13:05;26.50;99.90
20750;DHT22;10535;50.664;4.564;2023-07-20T13:15:42;26.40;99.90
20750;DHT22;10535;50.664;4.564;2023-07-20T13:18:08;25.80;99.90
20750;DHT22;10535;50.664;4.564;2023-07-20T13:20:34;25.90;99.90
20750;DHT22;10535;50.664;4.564;2023-07-20T13:22:59;25.90;99.90
20750;DHT22;10535;50.664;4.564;2023-07-20T13:25:25;25.60;99.90
20750;DHT22;10535;50.664;4.564;2023-07-20T13:27:56;25.70;99.90
20750;DHT22;10535;50.664;4.564;2023-07-20T13:30:24;25.60;99.90
20750;DHT22;10535;50.664;4.564;2023-07-20T13:32:49;25.50;99.90
20750;DHT22;10535;50.664;4.564;2023-07-20T13:35:15;24.90;99.90
20750;DHT22;10535;50.664;4.564;2023-07-20T13:37:41;24.40;99.90
20750;DHT22;10535;50.664;4.564;2023-07-20T13:40:10;24.40;99.90
20750;DHT22;10535;50.664;4.564;2023-07-20T13:42:39;24.30;99.90
20750;DHT22;10535;50.664;4.564;2023-07-20T13:45:08;23.90;99.90
20750;DHT22;10535;50.664;4.564;2023-07-20T13:47:34;24.00;99.90
20750;DHT22;10535;50.664;4.564;2023-07-20T13:49:59;23.90;99.90
20750;DHT22;10535;50.664;4.564;2023-07-20T13:52:26;24.10;99.90
20750;DHT22;10535;50.664;4.564;2023-07-20T13:54:51;24.10;99.90
20750;DHT22;10535;50.664;4.564;2023-07-20T13:57:17;24.00;99.90
20750;DHT22;10535;50.664;4.564;2023-07-20T13:59:44;24.00;99.90
20750;DHT22;10535;50.664;4.564;2023-07-20T14:02:11;24.20;99.90
20750;DHT22;10535;50.664;4.564;2023-07-20T14:04:43;24.10;99.90
20750;DHT22;10535;50.664;4.564;2023-07-20T14:07:16;24.10;99.90
20750;DHT22;10535;50.664;4.564;2023-07-20T14:09:41;23.90;99.90
20750;DHT22;10535;50.664;4.564;2023-07-20T14:12:07;23.70;99.90
20750;DHT22;10535;50.664;4.564;2023-07-20T14:14:36;23.40;99.90
20750;DHT22;10535;50.664;4.564;2023-07-20T14:17:02;23.60;99.90
20750;DHT22;10535;50.664;4.564;2023-07-20T14:19:27;23.60;99.90
20750;DHT22;10535;50.664;4.564;2023-07-20T14:21:53;23.70;99.90
20750;DHT22;10535;50.664;4.564;2023-07-20T14:24:20;23.80;99.90
20750;DHT22;10535;50.664;4.564;2023-07-20T14:26:46;24.00;99.90
20750;DHT22;10535;50.664;4.564;2023-07-20T14:29:13;23.90;99.90
20750;DHT22;10535;50.664;4.564;2023-07-20T14:31:39;24.20;99.90
20750;DHT22;10535;50.664;4.564;2023-07-20T14:34:04;24.40;99.90
20750;DHT22;10535;50.664;4.564;2023-07-20T14:36:30;24.50;99.90
20750;DHT22;10535;50.664;4.564;2023-07-20T14:38:56;24.90;99.90
20750;DHT22;10535;50.664;4.564;2023-07-20T14:41:22;25.00;99.90
20750;DHT22;10535;50.664;4.564;2023-07-20T14:43:47;24.80;99.90
20750;DHT22;10535;50.664;4.564;2023-07-20T14:46:13;24.80;99.90
20750;DHT22;10535;50.664;4.564;2023-07-20T14:48:39;24.30;99.90
20750;DHT22;10535;50.664;4.564;2023-07-20T14:51:04;23.80;99.90
20750;DHT22;10535;50.664;4.564;2023-07-20T14:53:30;23.90;99.90
20750;DHT22;10535;50.664;4.564;2023-07-20T14:56:00;24.00;99.90
20750;DHT22;10535;50.664;4.564;2023-07-20T14:58:26;23.70;99.90
20750;DHT22;10535;50.664;4.564;2023-07-20T15:00:52;23.70;99.90
20750;DHT22;10535;50.664;4.564;2023-07-20T15:03:17;23.30;99.90
20750;DHT22;10535;50.664;4.564;2023-07-20T15:05:43;23.40;99.90
20750;DHT22;10535;50.664;4.564;2023-07-20T15:08:09;23.10;99.90
20750;DHT22;10535;50.664;4.564;2023-07-20T15:10:34;22.90;99.90
20750;DHT22;10535;50.664;4.564;2023-07-20T15:13:00;22.70;99.90
20750;DHT22;10535;50.664;4.564;2023-07-20T15:15:26;22.90;99.90
20750;DHT22;10535;50.664;4.564;2023-07-20T15:17:52;22.80;99.90
20750;DHT22;10535;50.664;4.564;2023-07-20T15:20:19;23.00;99.90
20750;DHT22;10535;50.664;4.564;2023-07-20T15:22:45;23.10;99.90
20750;DHT22;10535;50.664;4.564;2023-07-20T15:25:11;23.20;99.90
20750;DHT22;10535;50.664;4.564;2023-07-20T15:27:39;23.30;99.90
20750;DHT22;10535;50.664;4.564;2023-07-20T15:30:07;23.30;99.90
20750;DHT22;10535;50.664;4.564;2023-07-20T15:32:33;23.50;99.90
20750;DHT22;10535;50.664;4.564;2023-07-20T15:34:59;23.20;99.90
20750;DHT22;10535;50.664;4.564;2023-07-20T15:37:24;23.30;99.90
20750;DHT22;10535;50.664;4.564;2023-07-20T15:39:50;22.70;99.90
20750;DHT22;10535;50.664;4.564;2023-07-20T15:42:16;22.70;99.90
20750;DHT22;10535;50.664;4.564;2023-07-20T15:44:41;22.40;99.90
20750;DHT22;10535;50.664;4.564;2023-07-20T15:47:07;22.50;99.90
20750;DHT22;10535;50.664;4.564;2023-07-20T15:49:33;22.40;99.90
20750;DHT22;10535;50.664;4.564;2023-07-20T15:52:01;22.50;99.90
20750;DHT22;10535;50.664;4.564;2023-07-20T15:54:27;22.30;99.90
20750;DHT22;10535;50.664;4.564;2023-07-20T15:56:52;22.40;99.90
20750;DHT22;10535;50.664;4.564;2023-07-20T15:59:19;22.30;99.90
20750;DHT22;10535;50.664;4.564;2023-07-20T16:01:45;22.20;99.90
20750;DHT22;10535;50.664;4.564;2023-07-20T16:04:12;21.80;99.90
20750;DHT22;10535;50.664;4.564;2023-07-20T16:06:40;21.60;99.90
20750;DHT22;10535;50.664;4.564;2023-07-20T16:09:06;21.70;99.90
20750;DHT22;10535;50.664;4.564;2023-07-20T16:11:32;21.70;99.90
20750;DHT22;10535;50.664;4.564;2023-07-20T16:13:59;21.70;99.90
20750;DHT22;10535;50.664;4.564;2023-07-20T16:16:24;21.70;99.90
20750;DHT22;10535;50.664;4.564;2023-07-20T16:18:50;21.70;99.90
20750;DHT22;10535;50.664;4.564;2023-07-20T16:21:16;21.70;99.90
20750;DHT22;10535;50.664;4.564;2023-07-20T16:23:43;21.20;99.90
20750;DHT22;10535;50.664;4.564;2023-07-20T16:26:08;20.00;99.90
20750;DHT22;10535;50.664;4.564;2023-07-20T16:28:34;19.00;99.90
20750;DHT22;10535;50.664;4.564;2023-07-20T16:30:59;18.40;99.90
20750;DHT22;10535;50.664;4.564;2023-07-20T16:33:25;17.90;99.90
20750;DHT22;10535;50.664;4.564;2023-07-20T16:35:51;17.70;99.90
20750;DHT22;10535;50.664;4.564;2023-07-20T16:38:16;17.40;99.90
20750;DHT22;10535;50.664;4.564;2023-07-20T16:40:42;17.20;99.90
20750;DHT22;10535;50.664;4.564;2023-07-20T16:43:08;17.00;99.90
20750;DHT22;10535;50.664;4.564;2023-07-20T16:45:35;16.90;99.90
20750;DHT22;10535;50.664;4.564;2023-07-20T16:48:05;16.80;99.90
20750;DHT22;10535;50.664;4.564;2023-07-20T16:50:31;16.80;99.90
20750;DHT22;10535;50.664;4.564;2023-07-20T16:52:58;16.80;99.90
20750;DHT22;10535;50.664;4.564;2023-07-20T16:55:23;16.60;99.90
20750;DHT22;10535;50.664;4.564;2023-07-20T16:57:49;16.60;99.90
20750;DHT22;10535;50.664;4.564;2023-07-20T17:00:15;16.50;99.90
20750;DHT22;10535;50.664;4.564;2023-07-20T17:02:42;16.60;99.90
20750;DHT22;10535;50.664;4.564;2023-07-20T17:05:08;16.70;99.90
20750;DHT22;10535;50.664;4.564;2023-07-20T17:07:39;16.80;99.90
20750;DHT22;10535;50.664;4.564;2023-07-20T17:10:06;16.90;99.90
20750;DHT22;10535;50.664;4.564;2023-07-20T17:12:33;17.00;99.90
20750;DHT22;10535;50.664;4.564;2023-07-20T17:14:59;17.00;99.90
20750;DHT22;10535;50.664;4.564;2023-07-20T17:17:24;17.20;99.90
20750;DHT22;10535;50.664;4.564;2023-07-20T17:19:50;17.20;99.90